Time;durP1;ratioP1;P1;durP2;ratioP2;P2;SDS_P1;SDS_P2;PMS_P1;PMS_P2;Temp;Humidity;BMP_temperature;BMP_pressure;BME280_temperature;BME280_humidity;BME280_pressure;Samples;Min_cycle;Max_cycle;Signal;HPM_P1;HPM_P2
2021/12/09 00:01:49;;;;;;;23.70;12.87;;;;;;;0.63;100.00;96170.66;5134642;27;20932;-36
2021/12/09 00:04:25;;;;;;;21.30;11.67;;;;;;;0.63;100.00;96165.44;5134846;27;20441;-37
2021/12/09 00:06:54;;;;;;;22.40;11.97;;;;;;;0.62;100.00;96174.25;5134597;27;20421;-37
2021/12/09 00:09:21;;;;;;;23.37;12.30;;;;;;;0.61;100.00;96173.44;5134463;27;20932;-34
2021/12/09 00:11:50;;;;;;;30.47;12.93;;;;;;;0.62;100.00;96179.47;5134773;27;20489;-36
2021/12/09 00:14:21;;;;;;;40.07;15.40;;;;;;;0.61;100.00;96188.31;5135186;27;20441;-34
2021/12/09 00:16:49;;;;;;;37.07;16.83;;;;;;;0.55;100.00;96183.84;5134520;27;20819;-37
2021/12/09 00:19:16;;;;;;;28.43;14.67;;;;;;;0.60;100.00;96189.28;5134752;27;20932;-36
2021/12/09 00:21:44;;;;;;;42.80;16.47;;;;;;;0.60;100.00;96197.13;5134348;27;20445;-36
2021/12/09 00:24:11;;;;;;;25.97;11.80;;;;;;;0.59;100.00;96195.53;5134372;27;20437;-37
2021/12/09 00:26:39;;;;;;;27.07;12.60;;;;;;;0.60;100.00;96207.59;5135168;27;20451;-36
2021/12/09 00:29:08;;;;;;;23.00;11.07;;;;;;;0.59;100.00;96205.97;5134228;27;20575;-35
2021/12/09 00:31:36;;;;;;;16.00;8.70;;;;;;;0.58;100.00;96199.97;5134226;27;20818;-35
2021/12/09 00:34:04;;;;;;;19.80;11.00;;;;;;;0.58;100.00;96206.97;5134601;27;20441;-36
2021/12/09 00:36:37;;;;;;;17.83;10.33;;;;;;;0.58;100.00;96209.56;5134257;27;20437;-36
2021/12/09 00:39:06;;;;;;;14.43;9.60;;;;;;;0.55;100.00;96213.38;5134211;27;21003;-37
2021/12/09 00:41:34;;;;;;;23.33;11.93;;;;;;;0.51;100.00;96211.34;5134225;27;20944;-36
2021/12/09 00:44:01;;;;;;;29.10;15.53;;;;;;;0.52;100.00;96203.31;5134138;27;20441;-35
2021/12/09 00:46:30;;;;;;;26.60;13.50;;;;;;;0.54;100.00;96208.38;5134548;27;20441;-37
2021/12/09 00:48:58;;;;;;;18.07;9.67;;;;;;;0.54;100.00;96216.19;5134105;27;20878;-37
2021/12/09 00:51:25;;;;;;;22.43;9.10;;;;;;;0.54;100.00;96213.59;5134063;27;20444;-35
2021/12/09 00:53:52;;;;;;;16.53;8.23;;;;;;;0.54;100.00;96218.81;5134088;27;20437;-37
2021/12/09 00:56:19;;;;;;;20.10;10.57;;;;;;;0.54;100.00;96200.53;5134106;27;20433;-36
2021/12/09 00:58:47;;;;;;;13.30;8.10;;;;;;;0.51;100.00;96200.88;5134100;27;20437;-36
2021/12/09 01:01:15;;;;;;;14.30;8.07;;;;;;;0.50;100.00;96207.13;5134297;27;20437;-37
2021/12/09 01:03:44;;;;;;;15.10;9.33;;;;;;;0.51;100.00;96208.72;5134272;27;20452;-36
2021/12/09 01:06:12;;;;;;;13.97;7.80;;;;;;;0.52;100.00;96200.69;5134278;27;20445;-37
2021/12/09 01:08:39;;;;;;;15.90;7.87;;;;;;;0.51;100.00;96200.88;5134224;27;20441;-37
2021/12/09 01:11:07;;;;;;;14.13;7.60;;;;;;;0.47;100.00;96197.81;5133920;27;20822;-37
2021/12/09 01:13:35;;;;;;;13.17;7.23;;;;;;;0.47;100.00;96197.03;5134107;27;20512;-36
2021/12/09 01:16:02;;;;;;;16.33;8.13;;;;;;;0.27;100.00;96170.72;5133887;27;20441;-36
2021/12/09 01:18:29;;;;;;;28.20;12.23;;;;;;;0.42;100.00;96194.19;5133844;27;20445;-37
2021/12/09 01:21:00;;;;;;;29.17;15.27;;;;;;;0.43;100.00;96201.00;5133883;27;20442;-38
2021/12/09 01:23:27;;;;;;;31.83;14.83;;;;;;;0.45;100.00;96199.00;5133842;27;20961;-37
2021/12/09 01:25:59;;;;;;;30.70;14.47;;;;;;;0.45;100.00;96193.78;5135044;27;20437;-37
2021/12/09 01:28:29;;;;;;;32.37;15.13;;;;;;;0.45;100.00;96193.78;5137755;27;20472;-37
2021/12/09 01:31:02;;;;;;;21.40;11.53;;;;;;;0.44;100.00;96176.50;5137514;27;20508;-35
2021/12/09 01:33:30;;;;;;;15.80;7.80;;;;;;;0.41;100.00;96180.31;5137714;27;20525;-37
2021/12/09 01:35:59;;;;;;;12.33;6.40;;;;;;;0.40;100.00;96171.66;5137670;27;20437;-36
2021/12/09 01:38:29;;;;;;;10.80;5.40;;;;;;;0.23;100.00;96148.59;5137679;27;20449;-37
2021/12/09 01:40:57;;;;;;;9.63;5.53;;;;;;;0.36;100.00;96175.63;5137663;27;20452;-36
2021/12/09 01:43:25;;;;;;;3.17;2.80;;;;;;;0.30;100.00;96170.34;5137540;27;20459;-37
2021/12/09 01:46:03;;;;;;;6.57;3.73;;;;;;;0.30;100.00;96171.19;5137220;27;20441;-37
2021/12/09 01:48:30;;;;;;;5.23;3.47;;;;;;;0.33;100.00;96183.03;5137252;27;20432;-35
2021/12/09 01:50:59;;;;;;;12.50;6.00;;;;;;;0.32;100.00;96168.34;5137461;27;20441;-37
2021/12/09 01:53:26;;;;;;;19.13;7.70;;;;;;;0.31;100.00;96172.78;5136999;27;20485;-37
2021/12/09 01:55:56;;;;;;;72.17;23.90;;;;;;;0.32;100.00;96179.63;5137360;27;20441;-37
2021/12/09 01:58:23;;;;;;;68.20;24.43;;;;;;;0.31;100.00;96172.78;5137274;27;20441;-37
2021/12/09 02:00:50;;;;;;;39.17;13.27;;;;;;;0.33;100.00;96176.00;5137222;27;20515;-37
2021/12/09 02:03:17;;;;;;;20.67;10.73;;;;;;;0.33;100.00;96173.41;5136877;27;20440;-38
2021/12/09 02:05:45;;;;;;;78.00;26.83;;;;;;;0.32;100.00;96165.75;5137191;27;20441;-35
2021/12/09 02:08:15;;;;;;;52.20;21.93;;;;;;;0.32;100.00;96168.34;5137072;27;20955;-37
2021/12/09 02:10:44;;;;;;;39.80;16.20;;;;;;;0.34;100.00;96164.56;5137060;27;20426;-34
2021/12/09 02:13:13;;;;;;;35.10;13.10;;;;;;;0.34;100.00;96163.75;5136911;27;20489;-36
2021/12/09 02:15:41;;;;;;;53.57;20.10;;;;;;;0.35;100.00;96163.56;5137428;27;20444;-36
2021/12/09 02:18:10;;;;;;;28.70;12.03;;;;;;;0.38;100.00;96178.84;5137776;27;20442;-36
2021/12/09 02:20:39;;;;;;;14.03;7.40;;;;;;;0.36;100.00;96165.19;5136488;27;20452;-36
2021/12/09 02:23:10;;;;;;;29.10;12.20;;;;;;;0.35;100.00;96154.94;5136788;27;20441;-36
2021/12/09 02:25:39;;;;;;;27.00;11.00;;;;;;;0.35;100.00;96160.97;5136733;27;20470;-37
2021/12/09 02:28:07;;;;;;;16.23;8.93;;;;;;;0.36;100.00;96153.94;5136153;27;20433;-38
2021/12/09 02:30:34;;;;;;;23.47;11.50;;;;;;;0.36;100.00;96159.97;5136370;27;20432;-36
2021/12/09 02:33:01;;;;;;;16.70;8.23;;;;;;;0.37;100.00;96156.38;5136503;27;20491;-38
2021/12/09 02:35:28;;;;;;;14.20;8.17;;;;;;;0.25;100.00;96131.75;5136651;27;20445;-38
2021/12/09 02:37:57;;;;;;;19.13;8.30;;;;;;;0.39;100.00;96146.53;5136496;27;20455;-36
2021/12/09 02:40:24;;;;;;;49.43;18.57;;;;;;;0.38;100.00;96157.97;5136136;27;20437;-37
2021/12/09 02:42:51;;;;;;;29.50;13.90;;;;;;;0.36;100.00;96146.91;5136032;27;20806;-37
2021/12/09 02:45:20;;;;;;;30.23;14.27;;;;;;;0.34;100.00;96156.72;5136031;27;20444;-36
2021/12/09 02:47:48;;;;;;;57.93;17.57;;;;;;;0.33;100.00;96160.34;5136319;27;20447;-37
2021/12/09 02:50:15;;;;;;;24.73;15.10;;;;;;;0.30;100.00;96155.50;5136247;27;20795;-36
2021/12/09 02:52:42;;;;;;;35.27;14.90;;;;;;;0.31;100.00;96161.53;5136122;27;20492;-37
2021/12/09 02:55:13;;;;;;;37.93;15.07;;;;;;;0.30;100.00;96176.41;5136175;27;20433;-36
2021/12/09 02:57:40;;;;;;;32.20;14.07;;;;;;;0.29;100.00;96179.19;5136203;27;20504;-37
2021/12/09 03:00:10;;;;;;;30.03;13.40;;;;;;;0.27;100.00;96184.59;5135700;27;20437;-36
2021/12/09 03:02:38;;;;;;;40.03;14.33;;;;;;;0.25;100.00;96189.19;5135700;27;20446;-37
2021/12/09 03:05:07;;;;;;;32.03;15.10;;;;;;;0.23;100.00;96180.72;5135639;27;20460;-37
2021/12/09 03:07:38;;;;;;;59.73;21.00;;;;;;;0.17;100.00;96176.25;5135561;27;21009;-38
2021/12/09 03:10:18;;;;;;;41.27;17.20;;;;;;;0.23;100.00;96179.94;5135597;27;20433;-37
2021/12/09 03:12:48;;;;;;;38.80;17.63;;;;;;;0.21;100.00;96182.72;5135485;27;20530;-36
2021/12/09 03:15:17;;;;;;;37.43;18.90;;;;;;;0.19;100.00;96179.47;5135639;27;20430;-37
2021/12/09 03:17:46;;;;;;;55.50;22.27;;;;;;;0.14;100.00;96179.25;5135397;27;20952;-37
2021/12/09 03:20:16;;;;;;;39.70;19.80;;;;;;;0.13;100.00;96180.22;5135390;27;20451;-37
2021/12/09 03:22:44;;;;;;;36.63;17.00;;;;;;;0.12;100.00;96182.03;5135266;27;20436;-37
2021/12/09 03:25:13;;;;;;;31.30;17.77;;;;;;;0.13;100.00;96185.44;5135260;27;20440;-37
2021/12/09 03:27:41;;;;;;;55.97;24.00;;;;;;;0.11;100.00;96187.47;5135474;27;20449;-37
2021/12/09 03:30:14;;;;;;;55.67;22.70;;;;;;;0.08;99.80;96193.03;5135012;27;20480;-38
2021/12/09 03:32:41;;;;;;;82.47;30.70;;;;;;;0.04;99.78;96184.75;5135362;27;20526;-37
2021/12/09 03:35:10;;;;;;;53.53;22.13;;;;;;;0.01;99.52;96181.72;5135119;27;20444;-37
2021/12/09 03:37:38;;;;;;;41.50;19.90;;;;;;;-0.02;99.63;96185.50;5135353;27;20437;-36
2021/12/09 03:40:07;;;;;;;37.20;15.77;;;;;;;-0.09;99.70;96167.16;5135261;27;20958;-37
2021/12/09 03:42:35;;;;;;;21.87;12.43;;;;;;;-0.08;99.65;96174.00;5134950;27;20466;-37
2021/12/09 03:45:04;;;;;;;16.80;10.13;;;;;;;-0.09;100.00;96177.59;5134889;27;20437;-37
2021/12/09 03:47:33;;;;;;;56.87;21.50;;;;;;;-0.11;100.00;96190.00;5134871;27;20437;-36
2021/12/09 03:50:01;;;;;;;162.10;53.17;;;;;;;-0.11;100.00;96184.00;5134719;27;20487;-36
2021/12/09 03:52:29;;;;;;;112.43;43.00;;;;;;;-0.14;100.00;96179.94;5135014;27;20510;-37
2021/12/09 03:54:57;;;;;;;64.40;26.77;;;;;;;-0.17;100.00;96174.28;5134721;27;20441;-36
2021/12/09 03:57:24;;;;;;;60.83;32.37;;;;;;;-0.18;100.00;96173.47;5135003;27;20448;-37
2021/12/09 03:59:53;;;;;;;62.00;35.50;;;;;;;-0.18;100.00;96178.69;5134962;27;20444;-37
2021/12/09 04:02:21;;;;;;;69.67;36.20;;;;;;;-0.20;100.00;96180.69;5134559;27;20441;-38
2021/12/09 04:04:50;;;;;;;49.10;25.43;;;;;;;-0.25;100.00;96183.84;5134949;27;20449;-37
2021/12/09 04:07:17;;;;;;;66.37;27.97;;;;;;;-0.26;100.00;96176.19;5134503;27;20437;-38
2021/12/09 04:09:44;;;;;;;48.07;19.77;;;;;;;-0.28;100.00;96183.38;5134604;27;20471;-37
2021/12/09 04:12:14;;;;;;;36.23;20.07;;;;;;;-0.28;100.00;96180.78;5134831;27;20437;-37
2021/12/09 04:14:41;;;;;;;65.83;20.60;;;;;;;-0.26;100.00;96181.41;5134747;27;20484;-37
2021/12/09 04:17:09;;;;;;;24.47;12.97;;;;;;;-0.24;100.00;96180.25;5134491;27;20916;-37
2021/12/09 04:19:36;;;;;;;19.47;9.93;;;;;;;-0.19;100.00;96176.25;5134434;27;20498;-39
2021/12/09 04:22:05;;;;;;;22.03;11.40;;;;;;;-0.16;100.00;96181.94;5134415;27;20433;-38
2021/12/09 04:24:32;;;;;;;33.03;13.63;;;;;;;-0.15;100.00;96178.34;5133726;27;20837;-38
2021/12/09 04:26:59;;;;;;;33.07;18.40;;;;;;;-0.11;100.00;96182.19;5131956;27;20445;-38
2021/12/09 04:29:26;;;;;;;34.80;15.70;;;;;;;-0.10;100.00;96186.41;5132109;27;20514;-38
2021/12/09 04:31:54;;;;;;;149.17;55.23;;;;;;;-0.13;100.00;96186.81;5132541;27;20508;-38
2021/12/09 04:34:21;;;;;;;76.17;36.03;;;;;;;-0.15;100.00;96195.78;5132143;27;20481;-39
2021/12/09 04:36:49;;;;;;;182.93;79.80;;;;;;;-0.15;100.00;96182.72;5132481;27;20827;-38
2021/12/09 04:39:18;;;;;;;98.47;48.00;;;;;;;-0.21;100.00;96174.66;5132058;27;20528;-38
2021/12/09 04:41:45;;;;;;;106.87;50.70;;;;;;;-0.16;100.00;96176.72;5132100;27;20444;-39
2021/12/09 04:44:12;;;;;;;66.43;34.57;;;;;;;-0.14;100.00;96174.72;5132186;27;21011;-37
2021/12/09 04:46:41;;;;;;;44.40;24.47;;;;;;;-0.13;100.00;96176.38;5132454;27;20444;-36
2021/12/09 04:49:08;;;;;;;29.23;16.83;;;;;;;-0.15;100.00;96165.31;5132354;27;20472;-37
2021/12/09 04:51:36;;;;;;;50.73;19.47;;;;;;;-0.13;100.00;96165.94;5131626;27;20439;-36
2021/12/09 04:54:05;;;;;;;91.67;39.87;;;;;;;-0.11;100.00;96169.13;5132209;27;20541;-37
2021/12/09 04:56:34;;;;;;;73.57;31.43;;;;;;;-0.09;100.00;96172.38;5132006;27;20444;-36
2021/12/09 04:59:02;;;;;;;88.53;35.30;;;;;;;-0.09;100.00;96161.94;5131978;27;20444;-38
2021/12/09 05:01:30;;;;;;;58.97;23.63;;;;;;;-0.09;100.00;96167.16;5133990;27;20441;-37
2021/12/09 05:03:57;;;;;;;39.77;18.40;;;;;;;-0.08;100.00;96168.78;5135499;27;20944;-37
2021/12/09 05:06:24;;;;;;;68.53;26.80;;;;;;;-0.07;100.00;96170.38;5135902;27;20868;-37
2021/12/09 05:08:52;;;;;;;49.70;23.83;;;;;;;-0.06;100.00;96182.44;5135906;27;20443;-37
2021/12/09 05:11:34;;;;;;;46.60;22.47;;;;;;;-0.17;100.00;96169.91;5135794;27;20453;-37
2021/12/09 05:14:03;;;;;;;50.67;23.67;;;;;;;-0.06;100.00;96181.66;5135791;27;21092;-33
2021/12/09 05:16:31;;;;;;;53.40;22.77;;;;;;;-0.07;100.00;96191.25;5135690;27;20433;-36
2021/12/09 05:18:59;;;;;;;40.50;19.43;;;;;;;-0.06;100.00;96185.06;5135289;27;21006;-35
2021/12/09 05:21:29;;;;;;;57.10;24.57;;;;;;;-0.06;100.00;96185.06;5135594;27;21150;-36
2021/12/09 05:23:58;;;;;;;48.47;25.47;;;;;;;-0.07;100.00;96196.47;5135583;27;20800;-35
2021/12/09 05:26:30;;;;;;;73.67;32.83;;;;;;;-0.08;100.00;96204.50;5135498;27;20966;-37
2021/12/09 05:28:57;;;;;;;72.37;32.67;;;;;;;-0.09;100.00;96193.25;5135465;27;20860;-37
2021/12/09 05:34:12;;;;;;;20.50;11.87;;;;;;;-0.08;100.00;96204.50;5135512;27;20965;-37
2021/12/09 05:36:40;;;;;;;29.67;13.03;;;;;;;-0.05;100.00;96201.53;5135366;27;20456;-37
2021/12/09 05:39:09;;;;;;;79.93;39.23;;;;;;;-0.05;100.00;96198.91;5135610;27;21087;-37
2021/12/09 05:41:37;;;;;;;69.80;28.97;;;;;;;-0.04;100.00;96206.56;5135554;27;20437;-37
2021/12/09 05:44:06;;;;;;;101.60;42.33;;;;;;;-0.01;100.00;96216.63;5134699;27;20959;-37
2021/12/09 05:46:37;;;;;;;93.40;40.50;;;;;;;0.02;100.00;96214.66;5136308;27;20444;-36
2021/12/09 05:49:04;;;;;;;76.23;31.77;;;;;;;-0.08;100.00;96210.53;5137110;27;20437;-36
2021/12/09 05:51:32;;;;;;;65.27;28.77;;;;;;;0.04;100.00;96229.13;5137151;27;20455;-37
2021/12/09 05:53:59;;;;;;;95.60;41.00;;;;;;;0.18;100.00;96224.88;5136931;27;20484;-37
2021/12/09 05:56:27;;;;;;;59.23;33.23;;;;;;;0.26;100.00;96211.72;5137023;27;20448;-36
2021/12/09 05:58:54;;;;;;;44.33;25.07;;;;;;;0.69;100.00;96237.84;5137342;27;20451;-37
2021/12/09 06:01:22;;;;;;;34.03;20.30;;;;;;;0.96;100.00;96233.63;5136874;27;20440;-37
2021/12/09 06:03:51;;;;;;;39.93;20.40;;;;;;;1.20;99.65;96235.00;5137705;27;20477;-36
2021/12/09 06:06:18;;;;;;;41.97;25.20;;;;;;;1.49;99.27;96222.72;5137177;27;20441;-35
2021/12/09 06:08:46;;;;;;;34.73;20.57;;;;;;;1.80;98.70;96234.53;5136773;27;20447;-37
2021/12/09 06:11:14;;;;;;;28.87;16.87;;;;;;;2.11;97.60;96230.63;5136467;27;20441;-37
2021/12/09 06:13:41;;;;;;;11.47;9.20;;;;;;;2.41;96.92;96231.94;5136585;27;20999;-37
2021/12/09 06:16:09;;;;;;;44.17;24.30;;;;;;;2.61;95.08;96237.22;5136978;27;20441;-37
2021/12/09 06:18:37;;;;;;;61.97;35.27;;;;;;;2.76;94.40;96244.91;5136907;27;20554;-34
2021/12/09 06:21:06;;;;;;;101.07;49.03;;;;;;;2.92;93.01;96240.25;5136925;27;20448;-37
2021/12/09 06:23:34;;;;;;;95.93;42.30;;;;;;;3.08;91.71;96238.06;5136776;27;20448;-36
2021/12/09 06:26:01;;;;;;;62.43;32.67;;;;;;;3.23;90.06;96239.66;5136441;27;20441;-37
2021/12/09 06:28:28;;;;;;;67.10;32.57;;;;;;;3.39;89.32;96233.19;5136106;27;20504;-37
2021/12/09 06:30:56;;;;;;;63.10;33.93;;;;;;;3.57;88.04;96236.00;5136390;27;20421;-35
2021/12/09 06:33:23;;;;;;;86.37;37.80;;;;;;;3.73;88.01;96231.31;5136242;27;20512;-36
2021/12/09 06:35:50;;;;;;;97.20;45.73;;;;;;;3.87;87.04;96241.56;5136563;27;20451;-36
2021/12/09 06:38:19;;;;;;;68.37;41.00;;;;;;;4.06;86.33;96231.97;5136179;27;20446;-36
2021/12/09 06:40:46;;;;;;;85.10;44.67;;;;;;;4.22;85.74;96235.97;5136128;27;20449;-36
2021/12/09 06:43:14;;;;;;;87.13;44.03;;;;;;;4.31;84.91;96231.25;5136156;27;20437;-36
2021/12/09 06:45:42;;;;;;;79.23;39.27;;;;;;;4.33;85.28;96234.50;5136094;27;20447;-37
2021/12/09 06:48:10;;;;;;;93.17;45.47;;;;;;;4.50;85.82;96225.09;5136906;27;20799;-37
2021/12/09 06:50:38;;;;;;;91.93;50.90;;;;;;;4.63;85.69;96224.19;5136025;27;20529;-37
2021/12/09 06:53:06;;;;;;;162.90;84.60;;;;;;;4.76;85.27;96212.78;5136174;27;20446;-37
2021/12/09 06:55:34;;;;;;;129.73;76.37;;;;;;;4.89;85.30;96210.06;5135839;27;20573;-37
2021/12/09 06:58:02;;;;;;;138.57;73.83;;;;;;;5.04;84.46;96199.22;5135824;27;20447;-37
2021/12/09 07:00:32;;;;;;;103.57;51.73;;;;;;;5.06;82.98;96196.38;5136144;27;20509;-37
2021/12/09 07:02:59;;;;;;;67.43;37.20;;;;;;;5.02;83.33;96216.25;5136036;27;20452;-37
2021/12/09 07:05:29;;;;;;;64.30;38.77;;;;;;;5.04;84.38;96217.63;5135614;27;20795;-37
2021/12/09 07:07:57;;;;;;;59.97;32.43;;;;;;;5.15;84.48;96225.84;5135631;27;20932;-37
2021/12/09 07:10:26;;;;;;;23.43;15.70;;;;;;;5.23;84.50;96220.31;5135598;27;20536;-36
2021/12/09 07:12:55;;;;;;;26.17;15.03;;;;;;;5.37;83.18;96228.88;5135557;27;20445;-36
2021/12/09 07:15:23;;;;;;;21.00;12.97;;;;;;;5.45;82.01;96236.50;5135334;27;20488;-37
2021/12/09 07:17:50;;;;;;;29.97;17.77;;;;;;;5.56;81.42;96238.44;5135441;27;20447;-36
2021/12/09 07:20:20;;;;;;;35.43;20.10;;;;;;;5.67;81.06;96229.00;5135698;27;20441;-37
2021/12/09 07:22:49;;;;;;;25.10;15.77;;;;;;;5.73;80.77;96218.38;5136579;27;20437;-36
2021/12/09 07:25:17;;;;;;;26.13;13.17;;;;;;;5.88;81.08;96214.59;5134813;27;20445;-36
2021/12/09 07:27:45;;;;;;;30.80;17.43;;;;;;;6.04;80.42;96224.53;5135203;27;21016;-36
2021/12/09 07:30:16;;;;;;;38.70;25.33;;;;;;;6.15;79.58;96221.19;5135143;27;20476;-36
2021/12/09 07:32:44;;;;;;;30.47;20.50;;;;;;;6.12;79.41;96205.81;5135196;27;20426;-37
2021/12/09 07:35:13;;;;;;;12.47;9.80;;;;;;;6.41;79.03;96223.69;5135089;27;20488;-37
2021/12/09 07:37:41;;;;;;;11.77;6.50;;;;;;;6.50;79.30;96223.16;5135338;27;20464;-37
2021/12/09 07:40:11;;;;;;;9.40;7.23;;;;;;;6.56;78.26;96222.28;5135039;27;20445;-36
2021/12/09 07:42:39;;;;;;;10.00;5.77;;;;;;;6.57;77.74;96221.22;5135360;27;20505;-36
2021/12/09 07:45:09;;;;;;;5.20;3.13;;;;;;;6.46;74.98;96215.94;5135250;27;20482;-36
2021/12/09 07:47:38;;;;;;;5.27;2.80;;;;;;;6.46;75.16;96206.19;5135255;27;20444;-36
2021/12/09 07:50:07;;;;;;;3.57;2.40;;;;;;;6.40;75.12;96214.97;5135166;27;20783;-36
2021/12/09 07:52:35;;;;;;;2.37;1.80;;;;;;;6.40;74.72;96207.06;5135152;27;20441;-36
2021/12/09 07:55:02;;;;;;;4.77;3.07;;;;;;;6.50;74.34;96204.69;5134985;27;20485;-36
2021/12/09 07:57:33;;;;;;;7.17;4.70;;;;;;;6.63;75.78;96201.06;5134832;27;20520;-34
2021/12/09 08:00:01;;;;;;;9.43;4.40;;;;;;;6.68;77.38;96208.31;5134758;27;20458;-36
2021/12/09 08:02:28;;;;;;;4.83;4.30;;;;;;;6.68;76.48;96198.56;5134963;27;20924;-36
2021/12/09 08:04:57;;;;;;;5.37;3.80;;;;;;;6.66;77.14;96210.38;5134938;27;20449;-35
2021/12/09 08:07:24;;;;;;;5.17;4.50;;;;;;;6.67;78.06;96207.50;5134877;27;20440;-34
2021/12/09 08:09:52;;;;;;;5.27;4.77;;;;;;;6.73;77.88;96192.59;5134592;27;20472;-36
2021/12/09 08:12:19;;;;;;;8.70;7.10;;;;;;;6.74;78.63;96202.94;5134500;27;20985;-35
2021/12/09 08:14:47;;;;;;;10.07;6.20;;;;;;;6.76;78.50;96197.44;5134431;27;20851;-36
2021/12/09 08:17:44;;;;;;;13.87;7.87;;;;;;;6.83;78.59;96206.03;5134731;27;20449;-36
2021/12/09 08:20:16;;;;;;;11.40;6.20;;;;;;;6.92;78.36;96217.88;5134389;27;20513;-37
2021/12/09 08:22:44;;;;;;;8.77;5.37;;;;;;;7.03;78.42;96204.94;5134438;27;20440;-35
2021/12/09 08:25:14;;;;;;;18.80;6.80;;;;;;;7.11;77.25;96196.69;5134399;27;20437;-34
2021/12/09 08:27:43;;;;;;;6.90;5.77;;;;;;;7.18;77.42;96202.63;5134339;27;20924;-35
2021/12/09 08:30:12;;;;;;;10.00;6.50;;;;;;;7.20;77.99;96195.28;5134236;27;20840;-37
2021/12/09 08:32:40;;;;;;;15.67;7.37;;;;;;;7.07;77.86;96163.84;5134272;27;20441;-36
2021/12/09 08:35:08;;;;;;;7.97;5.57;;;;;;;7.29;77.37;96183.38;5135972;27;20484;-35
2021/12/09 08:37:37;;;;;;;7.47;4.97;;;;;;;7.41;77.67;96187.84;5138534;27;20447;-36
2021/12/09 08:40:07;;;;;;;12.37;4.63;;;;;;;7.35;76.68;96173.72;5138528;27;20445;-36
2021/12/09 08:42:34;;;;;;;7.97;4.70;;;;;;;7.18;76.53;96153.31;5138765;27;20449;-38
2021/12/09 08:45:02;;;;;;;10.47;4.40;;;;;;;7.25;76.81;96179.59;5138429;27;20437;-37
2021/12/09 08:47:29;;;;;;;6.70;4.67;;;;;;;7.22;77.80;96181.88;5138381;27;20443;-36
2021/12/09 08:49:56;;;;;;;4.70;4.40;;;;;;;7.01;78.15;96180.59;5138242;27;20489;-36
2021/12/09 08:52:23;;;;;;;8.27;7.30;;;;;;;6.83;78.75;96189.41;5138336;27;20443;-35
2021/12/09 08:54:52;;;;;;;6.13;5.40;;;;;;;6.82;80.06;96183.34;5138192;27;20488;-36
2021/12/09 08:57:22;;;;;;;12.60;4.93;;;;;;;6.87;80.15;96191.38;5138504;27;20463;-34
2021/12/09 08:59:49;;;;;;;7.57;4.97;;;;;;;6.94;80.37;96178.06;5138154;27;20444;-34
2021/12/09 09:02:19;;;;;;;11.03;6.27;;;;;;;7.13;79.52;96182.22;5138403;27;20755;-36
2021/12/09 09:04:47;;;;;;;12.27;5.63;;;;;;;7.25;79.18;96179.59;5135577;27;20437;-36
2021/12/09 09:07:14;;;;;;;7.17;5.20;;;;;;;7.42;79.18;96170.94;5135886;27;20528;-35
2021/12/09 09:09:41;;;;;;;6.23;5.63;;;;;;;7.60;78.33;96162.91;5136190;27;20448;-36
2021/12/09 09:12:13;;;;;;;5.70;3.60;;;;;;;7.66;75.43;96146.13;5136139;27;20433;-36
2021/12/09 09:14:41;;;;;;;20.60;13.60;;;;;;;7.71;74.99;96143.56;5135710;27;20473;-35
2021/12/09 09:17:09;;;;;;;21.23;6.00;;;;;;;7.79;75.30;96145.84;5135278;27;20531;-38
2021/12/09 09:19:37;;;;;;;21.53;12.67;;;;;;;7.85;74.47;96143.31;5135677;27;20531;-37
2021/12/09 09:22:05;;;;;;;33.33;18.30;;;;;;;7.79;73.86;96140.56;5135694;27;20437;-37
2021/12/09 09:24:33;;;;;;;12.63;6.37;;;;;;;7.79;74.63;96130.00;5135507;27;20443;-35
2021/12/09 09:27:01;;;;;;;21.90;11.10;;;;;;;7.89;74.85;96129.38;5135556;27;20450;-36
2021/12/09 09:29:32;;;;;;;19.73;9.77;;;;;;;8.08;74.93;96127.34;5134839;27;21040;-38
2021/12/09 09:31:59;;;;;;;5.50;4.27;;;;;;;8.16;73.57;96120.91;5135598;27;20433;-35
2021/12/09 09:34:27;;;;;;;4.87;4.37;;;;;;;8.21;73.61;96111.19;5135344;27;20960;-38
2021/12/09 09:36:54;;;;;;;6.90;4.40;;;;;;;8.24;72.47;96115.22;5136191;27;20437;-37
2021/12/09 09:39:27;;;;;;;5.90;4.37;;;;;;;8.30;71.86;96113.47;5137388;27;20531;-38
2021/12/09 09:42:00;;;;;;;13.00;8.67;;;;;;;8.45;72.32;96099.72;5137357;27;20517;-38
2021/12/09 09:44:44;;;;;;;5.10;4.13;;;;;;;8.56;71.02;96094.38;5137291;27;20912;-37
2021/12/09 09:47:11;;;;;;;7.13;4.70;;;;;;;8.71;71.67;96108.88;5137023;27;20836;-37
2021/12/09 09:49:39;;;;;;;30.20;12.20;;;;;;;8.78;71.58;96105.03;5137214;27;20437;-37
2021/12/09 09:52:08;;;;;;;11.83;7.80;;;;;;;8.96;70.78;96106.63;5137436;27;20444;-37
2021/12/09 09:54:36;;;;;;;12.57;4.33;;;;;;;8.93;71.39;96096.53;5135021;27;20485;-37
2021/12/09 09:57:04;;;;;;;9.33;6.93;;;;;;;9.10;71.31;96112.41;5135229;27;20445;-37
2021/12/09 09:59:34;;;;;;;5.60;4.00;;;;;;;9.21;69.47;96108.03;5134929;27;20908;-36
2021/12/09 10:02:02;;;;;;;3.03;2.83;;;;;;;9.30;68.48;96111.88;5135120;27;20448;-36
2021/12/09 10:04:36;;;;;;;2.90;2.67;;;;;;;9.33;66.50;96115.88;5134831;27;20940;-36
2021/12/09 10:07:05;;;;;;;9.07;5.10;;;;;;;9.48;66.65;96117.94;5134376;27;20429;-37
2021/12/09 10:09:33;;;;;;;4.10;3.50;;;;;;;9.56;63.29;96114.84;5135112;27;20449;-37
2021/12/09 10:12:01;;;;;;;8.30;5.10;;;;;;;9.53;60.92;96104.72;5135017;27;20444;-34
2021/12/09 10:14:32;;;;;;;9.07;4.63;;;;;;;9.48;64.16;96096.72;5134456;27;20976;-37
2021/12/09 10:17:07;;;;;;;3.20;2.90;;;;;;;9.37;66.04;96091.28;5134593;27;20437;-35
2021/12/09 10:19:36;;;;;;;5.87;5.20;;;;;;;9.29;67.19;96091.75;5134583;27;20444;-35
2021/12/09 10:22:09;;;;;;;5.00;3.43;;;;;;;9.22;68.04;96081.28;5134824;27;20442;-37
2021/12/09 10:24:38;;;;;;;5.50;4.90;;;;;;;9.20;65.64;96086.03;5134419;27;20453;-37
2021/12/09 10:27:08;;;;;;;4.20;3.80;;;;;;;9.23;64.82;96074.16;5134704;27;20464;-37
2021/12/09 10:29:40;;;;;;;3.23;2.97;;;;;;;9.12;64.33;96083.00;5134166;27;20473;-34
2021/12/09 10:32:13;;;;;;;11.07;6.20;;;;;;;9.14;65.88;96075.63;5134670;27;20436;-37
2021/12/09 10:34:42;;;;;;;3.80;2.90;;;;;;;9.21;65.35;96065.66;5133687;27;20475;-36
2021/12/09 10:37:12;;;;;;;83.40;32.70;;;;;;;9.28;65.99;96068.94;5134129;27;20441;-37
2021/12/09 10:39:43;;;;;;;35.07;14.93;;;;;;;9.27;66.45;96064.69;5134346;27;20447;-35
2021/12/09 10:42:14;;;;;;;11.63;8.33;;;;;;;9.34;67.01;96051.25;5134141;27;20486;-35
2021/12/09 10:44:54;;;;;;;5.40;3.83;;;;;;;9.31;67.20;96055.19;5134401;27;20508;-36
2021/12/09 10:50:17;;;;;;;4.00;3.60;;;;;;;9.34;69.08;96057.34;5130161;27;20777;-37
2021/12/09 10:52:49;;;;;;;6.17;4.70;;;;;;;9.46;70.00;96064.38;5133980;27;20421;-37
2021/12/09 10:55:27;;;;;;;8.37;6.27;;;;;;;9.46;69.29;96059.88;5133840;27;20481;-36
2021/12/09 10:57:58;;;;;;;4.43;3.23;;;;;;;9.46;70.38;96045.81;5133220;27;20908;-34
2021/12/09 11:00:34;;;;;;;5.73;3.80;;;;;;;9.39;69.26;96052.09;5133028;27;21183;-37
2021/12/09 11:03:08;;;;;;;7.00;5.00;;;;;;;9.33;65.88;96053.09;5134076;27;20425;-36
2021/12/09 11:05:38;;;;;;;3.73;2.60;;;;;;;9.28;60.73;96037.13;5133746;27;20433;-36
2021/12/09 11:08:24;;;;;;;4.50;3.00;;;;;;;9.19;58.98;96041.28;5133673;27;20421;-36
2021/12/09 11:11:00;;;;;;;3.27;2.97;;;;;;;9.17;60.42;96032.78;5133594;27;20421;-36
2021/12/09 11:13:37;;;;;;;2.87;2.63;;;;;;;9.23;57.64;96047.69;5133298;27;20504;-37
2021/12/09 11:16:06;;;;;;;10.80;6.40;;;;;;;9.29;58.35;96037.94;5133693;27;20559;-37
2021/12/09 11:18:39;;;;;;;4.70;3.30;;;;;;;9.47;60.50;96028.91;5133352;27;20448;-36
2021/12/09 11:21:18;;;;;;;5.13;3.43;;;;;;;9.49;58.01;96040.06;5133321;27;20909;-35
2021/12/09 11:23:50;;;;;;;12.70;5.60;;;;;;;9.39;58.02;96025.63;5133294;27;20767;-37
2021/12/09 11:26:26;;;;;;;3.10;2.80;;;;;;;9.31;57.43;96018.09;5132788;27;20430;-37
2021/12/09 11:28:56;;;;;;;7.20;6.47;;;;;;;9.17;58.92;96011.59;5133183;27;20480;-36
2021/12/09 11:31:26;;;;;;;17.13;10.90;;;;;;;8.99;59.31;96033.84;5133357;27;20445;-36
2021/12/09 11:34:06;;;;;;;8.40;6.40;;;;;;;9.00;60.91;96048.69;5133139;27;20429;-38
2021/12/09 11:36:53;;;;;;;5.70;4.43;;;;;;;8.93;61.33;96040.13;5132996;27;20533;-36
2021/12/09 11:39:27;;;;;;;4.93;3.90;;;;;;;8.89;61.93;96031.88;5132860;27;20464;-37